Time;durP1;ratioP1;P1;durP2;ratioP2;P2;SDS_P1;SDS_P2;PMS_P1;PMS_P2;Temp;Humidity;BMP_temperature;BMP_pressure;BME280_temperature;BME280_humidity;BME280_pressure;Samples;Min_cycle;Max_cycle;Signal;HPM_P1;HPM_P2
2022/04/30 00:01:23;;;;;;;10.07;5.70;;;9.30;99.90;;;;;;4276398;27;20451;-51
2022/04/30 00:03:27;;;;;;;9.57;6.03;;;9.30;99.90;;;;;;4276115;27;20871;-51
2022/04/30 00:05:30;;;;;;;11.53;5.87;;;9.30;99.90;;;;;;4274835;27;20435;-51
2022/04/30 00:07:31;;;;;;;10.03;5.73;;;9.30;99.90;;;;;;4276006;27;20161;-49
2022/04/30 00:09:34;;;;;;;8.13;5.40;;;9.30;99.90;;;;;;4265147;27;20038;-55
2022/04/30 00:11:35;;;;;;;12.60;5.60;;;9.30;99.90;;;;;;4260370;27;20091;-52
2022/04/30 00:13:38;;;;;;;12.17;6.00;;;9.40;99.90;;;;;;4258530;27;20039;-53
2022/04/30 00:15:39;;;;;;;12.10;6.33;;;9.40;99.90;;;;;;4260628;27;20059;-52
2022/04/30 00:17:40;;;;;;;8.97;6.70;;;9.40;99.90;;;;;;4257996;27;20091;-53
2022/04/30 00:19:42;;;;;;;9.83;6.27;;;9.40;99.90;;;;;;4259734;27;20035;-67
2022/04/30 00:21:43;;;;;;;9.83;6.00;;;9.40;99.90;;;;;;4258124;27;20038;-49
2022/04/30 00:23:44;;;;;;;8.00;5.33;;;9.40;99.90;;;;;;4241668;27;20119;-55
2022/04/30 00:25:52;;;;;;;11.87;6.33;;;9.40;99.90;;;;;;4264499;27;20030;-51
2022/04/30 00:27:53;;;;;;;9.17;5.47;;;9.50;99.90;;;;;;4276695;27;20783;-48
2022/04/30 00:29:54;;;;;;;8.57;5.77;;;9.50;99.90;;;;;;4273225;27;20054;-51
2022/04/30 00:31:56;;;;;;;11.50;6.37;;;9.60;99.90;;;;;;4275771;27;20489;-54
2022/04/30 00:33:57;;;;;;;8.27;5.60;;;9.60;99.90;;;;;;4266783;27;20095;-52
2022/04/30 00:35:59;;;;;;;7.90;6.13;;;9.60;99.90;;;;;;4258924;27;20419;-54
2022/04/30 00:38:00;;;;;;;7.93;5.33;;;9.60;99.90;;;;;;4258480;27;20046;-48
2022/04/30 00:40:02;;;;;;;10.47;5.83;;;9.60;99.90;;;;;;4264084;27;20067;-62
2022/04/30 00:42:03;;;;;;;8.10;5.90;;;9.50;99.90;;;;;;4274886;27;20083;-55
2022/04/30 00:44:05;;;;;;;12.00;5.77;;;9.50;99.90;;;;;;4274640;27;20046;-50
2022/04/30 00:46:06;;;;;;;9.10;5.90;;;9.40;99.90;;;;;;4276583;27;20102;-50
2022/04/30 00:48:07;;;;;;;8.83;6.23;;;9.50;99.90;;;;;;4275374;27;20094;-55
2022/04/30 00:50:14;;;;;;;7.80;5.73;;;9.50;99.90;;;;;;4276847;27;20050;-54
2022/04/30 00:52:17;;;;;;;8.70;5.67;;;9.50;99.90;;;;;;4275368;27;20030;-53
2022/04/30 00:54:22;;;;;;;6.63;5.47;;;9.40;99.90;;;;;;4261907;27;20050;-52
2022/04/30 00:56:43;;;;;;;10.83;6.13;;;9.50;99.90;;;;;;4257191;27;20038;-54
2022/04/30 00:58:48;;;;;;;10.00;6.17;;;9.50;99.90;;;;;;4260286;27;20102;-56
2022/04/30 01:00:51;;;;;;;11.37;5.57;;;9.50;99.90;;;;;;4273615;27;20534;-55
2022/04/30 01:02:52;;;;;;;10.77;6.13;;;9.50;99.90;;;;;;4276320;27;20531;-57
2022/04/30 01:04:54;;;;;;;9.73;5.80;;;9.50;99.90;;;;;;4273925;27;20074;-57
2022/04/30 01:06:57;;;;;;;9.40;5.63;;;9.50;99.90;;;;;;4275508;27;20779;-58
2022/04/30 01:08:59;;;;;;;11.13;6.90;;;9.60;99.90;;;;;;4274874;27;20580;-51
2022/04/30 01:11:03;;;;;;;10.47;5.80;;;9.60;99.90;;;;;;4262298;27;20042;-54
2022/04/30 01:13:05;;;;;;;11.63;5.67;;;9.70;99.90;;;;;;4258548;27;20095;-54
2022/04/30 01:15:07;;;;;;;10.97;6.30;;;9.70;99.90;;;;;;4240521;27;20088;-52
2022/04/30 01:17:10;;;;;;;8.87;5.87;;;9.70;99.90;;;;;;4240414;27;20080;-57
2022/04/30 01:19:20;;;;;;;8.60;5.80;;;9.70;99.90;;;;;;4258467;27;20030;-56
2022/04/30 01:21:24;;;;;;;9.82;6.03;;;9.70;99.90;;;;;;4275482;27;20074;-55
2022/04/30 01:23:26;;;;;;;12.30;6.10;;;9.70;99.90;;;;;;4274449;27;20083;-54
2022/04/30 01:25:28;;;;;;;9.40;5.80;;;9.60;99.90;;;;;;4274263;27;20038;-48
2022/04/30 01:27:30;;;;;;;13.63;5.90;;;9.70;99.90;;;;;;4260891;27;20031;-50
2022/04/30 01:29:33;;;;;;;12.50;6.90;;;9.60;99.90;;;;;;4258688;27;20095;-51
2022/04/30 01:38:40;;;;;;;13.63;6.70;;;9.50;99.90;;;;;;4258121;27;20023;-52
2022/04/30 01:40:41;;;;;;;11.03;6.20;;;9.60;99.90;;;;;;4261213;27;20423;-51
2022/04/30 01:42:47;;;;;;;9.30;6.27;;;9.50;99.90;;;;;;4275224;27;20046;-52
2022/04/30 01:44:48;;;;;;;10.13;5.83;;;9.50;99.90;;;;;;4272743;27;20022;-52
2022/04/30 01:46:50;;;;;;;9.27;6.47;;;9.40;99.90;;;;;;4275118;27;20038;-52
2022/04/30 01:48:51;;;;;;;8.63;6.30;;;9.30;99.90;;;;;;4268147;27;20099;-53
2022/04/30 01:50:52;;;;;;;12.67;6.90;;;9.30;99.90;;;;;;4258301;27;20429;-56
2022/04/30 01:52:54;;;;;;;11.57;6.27;;;9.20;99.90;;;;;;4256768;27;20035;-56
2022/04/30 01:54:55;;;;;;;12.43;6.97;;;9.20;99.90;;;;;;4258488;27;20022;-63
2022/04/30 01:56:56;;;;;;;10.37;6.77;;;9.20;99.90;;;;;;4258737;27;20103;-53
2022/04/30 01:58:58;;;;;;;11.57;7.30;;;9.20;99.90;;;;;;4275599;27;20898;-51
2022/04/30 02:01:00;;;;;;;9.60;6.40;;;9.20;99.90;;;;;;4266043;27;20030;-55
2022/04/30 02:03:08;;;;;;;7.60;6.00;;;9.20;99.90;;;;;;4257690;27;20099;-56
2022/04/30 02:05:12;;;;;;;17.80;6.43;;;9.20;99.90;;;;;;4255833;27;20383;-53
2022/04/30 02:07:13;;;;;;;9.60;6.50;;;9.20;99.90;;;;;;4258245;27;20031;-53
2022/04/30 02:09:15;;;;;;;10.43;6.10;;;9.10;99.90;;;;;;4257222;27;20963;-54
2022/04/30 02:11:16;;;;;;;17.03;6.70;;;9.10;99.90;;;;;;4273189;27;20030;-51
2022/04/30 02:13:23;;;;;;;10.60;6.23;;;9.10;99.90;;;;;;4275044;27;20052;-49
2022/04/30 02:15:26;;;;;;;9.23;5.37;;;9.00;99.90;;;;;;4274449;27;20014;-49
2022/04/30 02:17:29;;;;;;;9.57;5.93;;;9.00;99.90;;;;;;4270836;27;20042;-52
2022/04/30 02:20:18;;;;;;;8.93;5.87;;;9.00;99.90;;;;;;4262840;27;20027;-51
2022/04/30 02:21:58;;;;;;;9.93;5.97;;;8.90;99.90;;;;;;4273736;27;20030;-49
2022/04/30 02:24:00;;;;;;;7.83;5.43;;;8.90;99.90;;;;;;4256146;27;20534;-54
2022/04/30 02:26:04;;;;;;;7.83;5.07;;;8.90;99.90;;;;;;4274779;27;20885;-53
2022/04/30 02:28:08;;;;;;;6.57;5.40;;;8.80;99.90;;;;;;4274184;27;20023;-54
2022/04/30 02:30:12;;;;;;;12.40;4.77;;;8.80;99.90;;;;;;4275055;27;20071;-48
2022/04/30 02:32:13;;;;;;;8.00;4.97;;;8.70;99.90;;;;;;4271196;27;20091;-53
2022/04/30 02:34:15;;;;;;;8.33;4.83;;;8.70;99.90;;;;;;4274497;27;20142;-60
2022/04/30 02:36:16;;;;;;;6.23;4.27;;;8.60;99.90;;;;;;4256677;27;20030;-53
2022/04/30 02:38:19;;;;;;;7.13;5.10;;;8.60;99.90;;;;;;4258021;27;20035;-51
2022/04/30 02:40:24;;;;;;;9.23;5.57;;;8.60;99.90;;;;;;4273795;27;20022;-51
2022/04/30 02:42:25;;;;;;;7.47;4.67;;;8.60;99.90;;;;;;4266602;27;20118;-57
2022/04/30 02:44:26;;;;;;;6.87;4.83;;;8.60;99.90;;;;;;4256435;27;20106;-53
2022/04/30 02:46:29;;;;;;;6.70;4.73;;;8.60;99.90;;;;;;4256998;27;20039;-59
2022/04/30 02:48:31;;;;;;;11.17;5.13;;;8.50;99.90;;;;;;4255791;27;20054;-51
2022/04/30 02:50:33;;;;;;;6.07;4.60;;;8.50;99.90;;;;;;4257306;27;20051;-54
2022/04/30 02:52:38;;;;;;;7.33;4.43;;;8.50;99.90;;;;;;4269059;27;20546;-54
2022/04/30 02:54:39;;;;;;;6.63;5.13;;;8.50;99.90;;;;;;4274645;27;20030;-52
2022/04/30 02:56:40;;;;;;;6.03;4.30;;;8.50;99.90;;;;;;4274021;27;20034;-50
2022/04/30 03:01:01;;;;;;;8.23;5.37;;;8.40;99.90;;;;;;4274121;27;20015;-48
2022/04/30 03:03:02;;;;;;;9.30;5.00;;;8.40;99.90;;;;;;4272546;27;20034;-49
2022/04/30 03:05:05;;;;;;;7.37;5.63;;;8.30;99.90;;;;;;4273750;27;20095;-54
2022/04/30 03:07:11;;;;;;;8.13;6.10;;;8.30;99.90;;;;;;4276783;27;20035;-51
2022/04/30 03:09:12;;;;;;;6.57;5.10;;;8.30;99.90;;;;;;4276847;27;20792;-58
2022/04/30 03:11:14;;;;;;;10.10;6.10;;;8.30;99.90;;;;;;4275263;27;20030;-54
2022/04/30 03:13:17;;;;;;;7.20;5.00;;;8.20;99.90;;;;;;4271048;27;20043;-54
2022/04/30 03:15:21;;;;;;;10.03;5.00;;;8.20;99.90;;;;;;4258834;27;20039;-51
2022/04/30 03:22:02;;;;;;;5.47;4.50;;;8.20;99.90;;;;;;4261175;27;20088;-48
2022/04/30 03:24:04;;;;;;;9.17;5.40;;;8.20;99.90;;;;;;4261628;27;20031;-51
2022/04/30 03:26:09;;;;;;;8.23;5.07;;;8.30;99.90;;;;;;4251429;27;20038;-62
2022/04/30 03:28:11;;;;;;;7.53;5.10;;;8.30;99.90;;;;;;4245003;27;20043;-50
2022/04/30 03:30:13;;;;;;;7.90;4.67;;;8.20;99.90;;;;;;4260149;27;20042;-55
2022/04/30 03:32:15;;;;;;;8.87;4.93;;;8.10;99.90;;;;;;4258943;27;20523;-55
2022/04/30 03:34:16;;;;;;;7.80;3.97;;;8.10;99.90;;;;;;4260484;27;20076;-54
2022/04/30 03:36:20;;;;;;;10.70;4.80;;;8.00;99.90;;;;;;4258788;27;20091;-52
2022/04/30 03:38:21;;;;;;;8.13;5.00;;;8.00;99.90;;;;;;4260213;27;20474;-55
2022/04/30 03:40:22;;;;;;;8.03;4.87;;;8.00;99.90;;;;;;4258772;27;20038;-54
2022/04/30 03:42:23;;;;;;;7.07;4.40;;;8.00;99.90;;;;;;4259790;27;20042;-49
2022/04/30 03:44:26;;;;;;;7.60;5.30;;;8.00;99.90;;;;;;4258626;27;20061;-53
2022/04/30 03:46:27;;;;;;;11.83;5.43;;;8.10;99.90;;;;;;4259246;27;20091;-54
2022/04/30 03:48:28;;;;;;;7.20;4.83;;;8.10;99.90;;;;;;4258978;27;20452;-52
2022/04/30 03:50:29;;;;;;;11.27;4.80;;;8.10;99.90;;;;;;4259338;27;20096;-61
2022/04/30 03:52:31;;;;;;;8.07;5.00;;;8.20;99.90;;;;;;4258985;27;20527;-49
2022/04/30 03:54:32;;;;;;;5.87;4.70;;;8.20;99.90;;;;;;4264133;27;20038;-56
2022/04/30 03:56:33;;;;;;;14.53;5.10;;;8.30;99.90;;;;;;4277243;27;20454;-60
2022/04/30 03:58:34;;;;;;;7.90;4.40;;;8.30;99.90;;;;;;4275905;27;20031;-55
2022/04/30 04:00:37;;;;;;;8.10;4.53;;;8.60;99.90;;;;;;4265478;27;20406;-55
2022/04/30 04:02:43;;;;;;;12.37;5.93;;;9.00;99.90;;;;;;4258215;27;20034;-61
2022/04/30 04:04:45;;;;;;;5.87;4.10;;;9.20;99.90;;;;;;4258939;27;20103;-61
2022/04/30 04:06:47;;;;;;;7.23;5.17;;;9.30;99.90;;;;;;4258714;27;20067;-55
2022/04/30 04:08:51;;;;;;;8.27;4.87;;;9.20;99.90;;;;;;4259641;27;20035;-55
2022/04/30 04:10:52;;;;;;;16.87;5.57;;;9.20;99.90;;;;;;4257009;27;20047;-55
2022/04/30 04:17:37;;;;;;;8.43;5.90;;;9.10;99.90;;;;;;4260416;27;20035;-55
2022/04/30 04:17:39;;;;;;;7.87;4.93;;;9.30;99.90;;;;;;4258630;27;20038;-53
2022/04/30 04:19:40;;;;;;;11.17;4.93;;;9.40;99.90;;;;;;4257207;27;20034;-59
2022/04/30 04:21:42;;;;;;;9.53;5.50;;;9.40;99.90;;;;;;4259062;27;20106;-61
2022/04/30 04:26:03;;;;;;;18.50;6.43;;;9.50;99.90;;;;;;4259553;27;20026;-60
2022/04/30 04:28:04;;;;;;;11.40;5.80;;;9.70;99.90;;;;;;4255531;27;20266;-64
2022/04/30 04:30:06;;;;;;;12.20;6.17;;;9.80;99.90;;;;;;4258630;27;20559;-58
2022/04/30 04:32:07;;;;;;;8.13;4.17;;;9.90;99.90;;;;;;4257319;27;20558;-64
2022/04/30 04:34:08;;;;;;;8.50;4.27;;;10.00;99.90;;;;;;4258503;27;20138;-65
2022/04/30 04:36:11;;;;;;;9.33;4.40;;;10.10;99.90;;;;;;4258048;27;20141;-57
2022/04/30 04:38:12;;;;;;;7.70;3.93;;;10.40;99.90;;;;;;4258378;27;20035;-52
2022/04/30 04:40:14;;;;;;;7.00;4.40;;;11.00;99.90;;;;;;4257980;27;20482;-56
2022/04/30 04:42:19;;;;;;;8.40;3.63;;;11.60;99.90;;;;;;4256823;27;20539;-54
2022/04/30 04:44:21;;;;;;;3.60;3.27;;;12.00;99.90;;;;;;4239991;27;20039;-53
2022/04/30 04:46:22;;;;;;;8.10;3.70;;;12.10;99.90;;;;;;4257252;27;20034;-52
2022/04/30 04:48:23;;;;;;;7.07;3.90;;;12.00;99.90;;;;;;4259273;27;20031;-49
2022/04/30 04:50:24;;;;;;;11.70;4.30;;;11.80;99.90;;;;;;4257617;27;20051;-52
2022/04/30 04:52:27;;;;;;;10.70;4.23;;;11.50;99.90;;;;;;4259247;27;20043;-53
2022/04/30 04:54:28;;;;;;;5.20;3.57;;;11.10;99.90;;;;;;4257727;27;20086;-53
2022/04/30 04:56:30;;;;;;;10.47;4.47;;;11.40;99.90;;;;;;4258310;27;20042;-65
2022/04/30 04:58:31;;;;;;;7.17;5.20;;;11.90;99.90;;;;;;4257825;27;20079;-53
2022/04/30 05:00:33;;;;;;;6.63;4.17;;;12.80;99.90;;;;;;4258799;27;20520;-55
2022/04/30 05:02:35;;;;;;;8.87;4.00;;;13.60;99.90;;;;;;4238672;27;20068;-53
2022/04/30 05:04:37;;;;;;;6.83;4.37;;;14.00;99.90;;;;;;4258046;27;20099;-52
2022/04/30 05:06:38;;;;;;;8.87;4.60;;;14.40;99.90;;;;;;4257721;27;20027;-53
2022/04/30 05:08:39;;;;;;;6.23;4.10;;;14.90;99.90;;;;;;4257227;27;20090;-51
2022/04/30 05:10:40;;;;;;;8.60;4.80;;;15.00;99.90;;;;;;4257458;27;20147;-52
2022/04/30 05:12:45;;;;;;;10.57;4.70;;;15.00;99.90;;;;;;4257155;27;20026;-54
2022/04/30 05:14:48;;;;;;;8.33;4.60;;;14.90;99.90;;;;;;4257942;27;20046;-55
2022/04/30 05:16:49;;;;;;;6.57;4.40;;;14.60;99.90;;;;;;4257468;27;20432;-55
2022/04/30 05:18:50;;;;;;;9.07;4.90;;;15.00;99.90;;;;;;4258995;27;20034;-50
2022/04/30 05:20:52;;;;;;;7.73;4.73;;;15.40;99.90;;;;;;4256286;27;20038;-54
2022/04/30 05:22:53;;;;;;;9.23;4.93;;;15.80;99.90;;;;;;4258381;27;20481;-50
2022/04/30 05:24:54;;;;;;;16.00;5.17;;;16.40;99.90;;;;;;4255797;27;20042;-54
2022/04/30 05:26:55;;;;;;;10.88;4.30;;;16.30;99.90;;;;;;4257605;27;20039;-56
2022/04/30 05:28:56;;;;;;;5.40;4.55;;;16.60;99.90;;;;;;4255829;27;20483;-56
2022/04/30 05:30:58;;;;;;;6.43;4.07;;;16.60;99.90;;;;;;4258510;27;21092;-52
2022/04/30 05:32:59;;;;;;;8.07;4.37;;;16.40;99.90;;;;;;4256027;27;20083;-55
2022/04/30 05:35:00;;;;;;;10.40;4.35;;;16.40;99.90;;;;;;4257571;27;20040;-55
2022/04/30 05:37:02;;;;;;;7.28;4.10;;;16.30;99.90;;;;;;4255465;27;20023;-50
2022/04/30 05:39:06;;;;;;;6.80;3.50;;;16.20;99.90;;;;;;4257654;27;20087;-58
2022/04/30 05:41:07;;;;;;;5.63;3.80;;;15.90;99.90;;;;;;4256384;27;20157;-63
2022/04/30 05:43:08;;;;;;;7.68;3.80;;;16.00;99.90;;;;;;4257584;27;20065;-53
2022/04/30 05:45:10;;;;;;;9.15;8.25;;;16.20;99.90;;;;;;4257987;27;20087;-52
2022/04/30 05:47:11;;;;;;;9.47;7.40;;;16.30;99.90;;;;;;4256898;27;20463;-52
2022/04/30 05:49:12;;;;;;;5.73;4.23;;;16.20;99.90;;;;;;4258148;27;20099;-53
2022/04/30 05:51:13;;;;;;;6.15;3.90;;;16.00;99.90;;;;;;4255385;27;20072;-54
2022/04/30 05:53:14;;;;;;;5.85;3.70;;;15.50;99.90;;;;;;4257071;27;20467;-54
2022/04/30 05:55:15;;;;;;;8.17;4.20;;;15.00;99.90;;;;;;4256603;27;20091;-50
2022/04/30 05:57:17;;;;;;;6.63;3.63;;;14.90;99.90;;;;;;4257327;27;20031;-50
2022/04/30 05:59:18;;;;;;;8.15;3.97;;;15.50;99.90;;;;;;4256268;27;20026;-50
2022/04/30 06:01:19;;;;;;;7.30;3.90;;;16.30;99.90;;;;;;4256492;27;20034;-53
2022/04/30 06:03:20;;;;;;;10.40;9.38;;;16.90;99.90;;;;;;4255241;27;20091;-54
2022/04/30 06:05:22;;;;;;;8.40;5.00;;;17.00;99.90;;;;;;4257580;27;20027;-53
2022/04/30 06:07:23;;;;;;;6.00;4.60;;;16.90;99.90;;;;;;4255941;27;20039;-50
2022/04/30 06:09:25;;;;;;;10.38;5.53;;;16.60;99.90;;;;;;4257241;27;20158;-53
2022/04/30 06:11:26;;;;;;;16.38;10.07;;;16.80;99.90;;;;;;4255465;27;20807;-57
2022/04/30 06:13:27;;;;;;;12.07;6.25;;;16.80;99.90;;;;;;4257173;27;20130;-58
2022/04/30 06:15:28;;;;;;;13.10;8.27;;;16.70;99.90;;;;;;4257355;27;20383;-56
2022/04/30 06:17:30;;;;;;;6.05;4.38;;;16.50;99.90;;;;;;4255880;27;20079;-52
2022/04/30 06:19:31;;;;;;;6.13;3.90;;;16.40;99.90;;;;;;4257625;27;20130;-64
2022/04/30 06:21:32;;;;;;;9.15;5.10;;;16.40;99.90;;;;;;4256182;27;20026;-57
2022/04/30 06:23:33;;;;;;;6.75;5.38;;;16.20;99.90;;;;;;4256346;27;20106;-58
2022/04/30 06:25:35;;;;;;;5.40;3.90;;;16.20;99.90;;;;;;4255688;27;20034;-53
2022/04/30 06:27:36;;;;;;;5.78;4.22;;;16.20;99.90;;;;;;4256672;27;20111;-54
2022/04/30 06:29:38;;;;;;;8.30;3.90;;;16.00;99.90;;;;;;4256272;27;20039;-54
2022/04/30 06:31:40;;;;;;;4.97;3.95;;;15.90;99.90;;;;;;4257086;27;20550;-52
2022/04/30 06:33:41;;;;;;;7.00;4.07;;;16.00;99.90;;;;;;4255273;27;20133;-54
2022/04/30 06:35:43;;;;;;;4.97;3.25;;;16.80;99.90;;;;;;4256890;27;20095;-54
2022/04/30 06:37:44;;;;;;;7.72;3.05;;;16.80;99.90;;;;;;4254972;27;20154;-53
2022/04/30 06:39:46;;;;;;;4.40;3.40;;;16.70;99.90;;;;;;4255012;27;20034;-54
2022/04/30 06:41:47;;;;;;;4.38;3.10;;;16.80;99.90;;;;;;4259782;27;20027;-55
2022/04/30 06:43:50;;;;;;;3.10;2.70;;;16.60;99.90;;;;;;4258285;27;20482;-65
2022/04/30 06:45:51;;;;;;;6.07;3.30;;;16.50;99.90;;;;;;4258976;27;20030;-52
2022/04/30 06:47:52;;;;;;;5.10;3.05;;;17.00;99.90;;;;;;4258842;27;20039;-63
2022/04/30 06:49:53;;;;;;;3.80;2.95;;;17.20;99.90;;;;;;4259501;27;20047;-61
2022/04/30 06:51:54;;;;;;;6.53;3.58;;;17.10;99.90;;;;;;4258723;27;20027;-58
2022/04/30 06:58:44;;;;;;;3.83;3.20;;;16.60;99.90;;;;;;4246369;27;20522;-52
2022/04/30 07:02:59;;;;;;;5.22;2.53;;;17.00;99.90;;;;;;4242983;27;20084;-55
2022/04/30 07:05:00;;;;;;;3.15;2.40;;;16.80;99.90;;;;;;4241953;27;20047;-59
2022/04/30 07:07:02;;;;;;;1.60;1.25;;;16.70;99.90;;;;;;4244120;27;20023;-61
2022/04/30 07:09:05;;;;;;;2.72;1.10;;;16.50;99.90;;;;;;4242520;27;20027;-58
2022/04/30 07:11:06;;;;;;;1.63;1.23;;;16.50;99.80;;;;;;4243350;27;20496;-58
2022/04/30 07:13:07;;;;;;;1.92;1.08;;;16.70;98.90;;;;;;4241404;27;20034;-52
2022/04/30 07:15:09;;;;;;;0.75;0.70;;;17.00;98.00;;;;;;4261026;27;20038;-59
2022/04/30 07:17:12;;;;;;;2.63;1.02;;;17.30;97.10;;;;;;4271302;27;20046;-57
2022/04/30 07:19:14;;;;;;;6.57;2.20;;;17.70;96.20;;;;;;4266177;27;20054;-58
2022/04/30 07:21:15;;;;;;;2.00;1.13;;;18.00;96.10;;;;;;4253310;27;20047;-57
2022/04/30 07:23:16;;;;;;;3.20;1.70;;;18.10;95.50;;;;;;4269278;27;20047;-53
2022/04/30 07:25:17;;;;;;;1.30;1.20;;;18.10;94.80;;;;;;4256777;27;20283;-54
2022/04/30 07:27:18;;;;;;;1.98;1.27;;;17.70;94.70;;;;;;4252572;27;20068;-54
2022/04/30 07:29:19;;;;;;;1.40;0.88;;;17.40;94.80;;;;;;4258544;27;20042;-57
2022/04/30 07:31:20;;;;;;;4.15;1.90;;;17.10;95.10;;;;;;4258233;27;20075;-60
2022/04/30 07:33:22;;;;;;;1.35;1.20;;;16.80;95.60;;;;;;4258919;27;20087;-55
2022/04/30 07:35:23;;;;;;;19.00;8.52;;;16.80;96.00;;;;;;4258582;27;20039;-56
2022/04/30 07:37:24;;;;;;;18.67;7.47;;;17.20;96.10;;;;;;4260311;27;20056;-58
2022/04/30 07:39:25;;;;;;;33.28;12.73;;;17.70;95.50;;;;;;4258635;27;20467;-67
2022/04/30 07:41:26;;;;;;;2.90;0.90;;;17.90;94.90;;;;;;4259590;27;20594;-55
2022/04/30 07:43:28;;;;;;;1.25;1.02;;;18.00;94.50;;;;;;4258015;27;20554;-55
2022/04/30 07:45:29;;;;;;;3.33;1.48;;;17.90;94.20;;;;;;4259800;27;20126;-57
2022/04/30 07:47:30;;;;;;;18.25;7.72;;;17.90;94.10;;;;;;4257742;27;20042;-51
2022/04/30 07:49:31;;;;;;;3.17;1.52;;;17.70;94.50;;;;;;4258747;27;20031;-55
2022/04/30 07:51:42;;;;;;;3.60;1.40;;;17.90;94.50;;;;;;4258301;27;20078;-56
2022/04/30 07:53:43;;;;;;;1.65;1.05;;;18.10;94.10;;;;;;4259513;27;20046;-54
2022/04/30 07:55:44;;;;;;;1.75;1.58;;;17.90;93.80;;;;;;4258532;27;20071;-55
2022/04/30 07:57:46;;;;;;;2.15;1.10;;;17.60;93.80;;;;;;4262195;27;21336;-55
2022/04/30 07:59:47;;;;;;;2.05;1.67;;;17.30;94.00;;;;;;4275152;27;20081;-55
2022/04/30 08:01:52;;;;;;;2.00;1.48;;;17.00;94.60;;;;;;4265709;27;20022;-65
2022/04/30 08:03:53;;;;;;;3.42;1.50;;;17.10;94.70;;;;;;4257747;27;20046;-56
2022/04/30 08:05:54;;;;;;;2.70;1.33;;;17.20;94.70;;;;;;4254834;27;20039;-53
2022/04/30 08:07:56;;;;;;;2.45;1.13;;;17.00;94.10;;;;;;4242085;27;20066;-54
2022/04/30 08:09:57;;;;;;;1.88;1.40;;;16.90;94.90;;;;;;4241171;27;20050;-50
2022/04/30 08:11:58;;;;;;;2.95;1.38;;;17.00;94.80;;;;;;4242331;27;20023;-54
2022/04/30 08:13:59;;;;;;;2.33;1.40;;;17.10;94.60;;;;;;4241263;27;20092;-55
2022/04/30 08:16:00;;;;;;;2.63;1.58;;;17.10;94.50;;;;;;4241739;27;20039;-52
2022/04/30 08:18:01;;;;;;;1.05;0.95;;;16.90;94.60;;;;;;4240393;27;20085;-55
2022/04/30 08:20:03;;;;;;;3.13;1.65;;;16.90;94.50;;;;;;4242735;27;20023;-54
2022/04/30 08:22:04;;;;;;;1.50;1.40;;;16.80;94.80;;;;;;4241326;27;20820;-64
2022/04/30 08:24:06;;;;;;;2.08;1.33;;;16.90;94.70;;;;;;4241772;27;20042;-59
2022/04/30 08:26:07;;;;;;;2.33;1.95;;;16.90;94.60;;;;;;4241609;27;20035;-58
2022/04/30 08:28:08;;;;;;;1.70;1.27;;;17.00;94.50;;;;;;4263386;27;20174;-57
2022/04/30 08:30:10;;;;;;;1.98;1.35;;;17.00;94.40;;;;;;4274412;27;20046;-57
2022/04/30 08:32:11;;;;;;;2.92;1.08;;;16.90;94.10;;;;;;4275120;27;20023;-63
2022/04/30 08:34:12;;;;;;;3.72;1.50;;;16.90;94.20;;;;;;4274150;27;20143;-55
2022/04/30 08:36:14;;;;;;;5.55;1.52;;;17.00;94.30;;;;;;4276209;27;20577;-55
2022/04/30 08:38:15;;;;;;;3.05;1.45;;;17.10;94.30;;;;;;4276033;27;20063;-60
2022/04/30 08:40:17;;;;;;;1.13;1.02;;;17.10;94.20;;;;;;4275366;27;20030;-56
2022/04/30 08:42:19;;;;;;;1.73;0.90;;;17.00;94.00;;;;;;4276078;27;20070;-53
2022/04/30 08:44:21;;;;;;;1.13;1.02;;;17.00;93.60;;;;;;4262080;27;20035;-52
2022/04/30 08:46:22;;;;;;;1.20;1.10;;;16.80;93.30;;;;;;4241749;27;20103;-55
2022/04/30 08:48:26;;;;;;;4.70;1.45;;;16.70;93.40;;;;;;4239288;27;20039;-56
2022/04/30 08:50:29;;;;;;;1.10;1.00;;;16.60;93.40;;;;;;4241711;27;20166;-51
2022/04/30 08:52:31;;;;;;;2.22;1.08;;;16.60;93.20;;;;;;4239211;27;20111;-57
2022/04/30 08:54:32;;;;;;;2.08;1.10;;;16.50;92.70;;;;;;4240858;27;20027;-55
2022/04/30 08:56:37;;;;;;;2.10;1.05;;;16.50;93.10;;;;;;4246226;27;20038;-56
2022/04/30 08:58:38;;;;;;;2.45;1.83;;;16.70;92.70;;;;;;4268199;27;20046;-57
2022/04/30 09:00:41;;;;;;;1.15;1.05;;;16.90;92.70;;;;;;4274702;27;20026;-58
2022/04/30 09:02:56;;;;;;;1.80;1.10;;;17.00;92.50;;;;;;4256612;27;20064;-50
2022/04/30 09:04:57;;;;;;;1.92;1.40;;;17.10;92.30;;;;;;4256056;27;20039;-56
2022/04/30 09:06:58;;;;;;;3.47;1.20;;;17.20;92.80;;;;;;4258985;27;20030;-56
2022/04/30 09:08:59;;;;;;;1.90;1.00;;;17.20;92.40;;;;;;4256206;27;20035;-56
2022/04/30 09:11:06;;;;;;;0.95;0.95;;;17.20;91.90;;;;;;4257823;27;20095;-50
2022/04/30 09:13:13;;;;;;;3.22;1.23;;;17.20;91.50;;;;;;4257697;27;20506;-53
2022/04/30 09:15:15;;;;;;;1.98;1.10;;;17.20;92.00;;;;;;4257753;27;20022;-59
2022/04/30 09:17:17;;;;;;;1.75;1.20;;;17.30;91.90;;;;;;4256650;27;20095;-64
2022/04/30 09:19:18;;;;;;;1.27;1.05;;;17.30;92.00;;;;;;4256624;27;20031;-54
2022/04/30 09:21:20;;;;;;;2.25;1.08;;;17.10;91.70;;;;;;4256853;27;20494;-55
2022/04/30 09:23:31;;;;;;;2.35;1.17;;;17.10;91.90;;;;;;4257338;27;20409;-56
2022/04/30 09:25:33;;;;;;;1.35;1.10;;;17.30;91.30;;;;;;4258149;27;20534;-65
2022/04/30 09:27:51;;;;;;;1.23;1.13;;;17.60;91.40;;;;;;4257329;27;20026;-54
2022/04/30 09:29:52;;;;;;;4.13;1.23;;;17.90;91.30;;;;;;4238369;27;20046;-54
2022/04/30 09:31:54;;;;;;;3.35;1.27;;;17.50;91.20;;;;;;4255394;27;20042;-66
2022/04/30 09:33:57;;;;;;;2.75;1.38;;;17.20;91.40;;;;;;4257135;27;20050;-55
2022/04/30 09:38:25;;;;;;;3.13;1.63;;;17.30;92.00;;;;;;4258901;27;20099;-62
2022/04/30 09:40:26;;;;;;;5.15;1.58;;;17.30;92.10;;;;;;4256554;27;20166;-57
2022/04/30 09:42:38;;;;;;;1.63;1.50;;;17.30;92.00;;;;;;4257557;27;20100;-53
2022/04/30 09:44:39;;;;;;;5.07;1.83;;;17.40;91.90;;;;;;4257160;27;20026;-52
2022/04/30 09:46:41;;;;;;;2.05;1.38;;;17.40;92.30;;;;;;4257298;27;20601;-58
2022/04/30 09:55:52;;;;;;;3.55;1.67;;;17.40;90.10;;;;;;4258325;27;19962;-55
2022/04/30 09:57:53;;;;;;;2.78;2.45;;;17.40;91.20;;;;;;4255652;27;20742;-63
2022/04/30 09:59:57;;;;;;;2.33;1.60;;;17.50;91.50;;;;;;4257093;27;20034;-57
2022/04/30 10:02:02;;;;;;;3.58;1.60;;;17.60;91.40;;;;;;4256494;27;20031;-50
2022/04/30 10:04:09;;;;;;;2.80;1.80;;;17.70;91.20;;;;;;4257053;27;20099;-54
2022/04/30 10:06:12;;;;;;;1.90;1.35;;;17.70;90.80;;;;;;4257159;27;20030;-57
2022/04/30 10:08:14;;;;;;;3.22;2.00;;;17.70;90.90;;;;;;4257669;27;20027;-57
2022/04/30 10:10:21;;;;;;;3.25;1.73;;;17.80;90.80;;;;;;4237939;27;20051;-56
2022/04/30 10:12:32;;;;;;;1.95;1.73;;;17.70;91.30;;;;;;4257565;27;20436;-57
2022/04/30 10:14:42;;;;;;;2.47;1.90;;;17.60;91.50;;;;;;4256812;27;20034;-53
2022/04/30 10:17:09;;;;;;;1.95;1.67;;;17.50;91.80;;;;;;4257868;27;20463;-58
2022/04/30 10:19:15;;;;;;;2.00;1.70;;;17.60;91.80;;;;;;4256246;27;20039;-60
2022/04/30 10:21:19;;;;;;;1.92;1.70;;;17.70;91.40;;;;;;4257714;27;21070;-53
2022/04/30 10:23:21;;;;;;;2.00;1.77;;;17.80;91.30;;;;;;4256354;27;20022;-55
2022/04/30 10:25:36;;;;;;;2.22;1.95;;;17.70;91.30;;;;;;4257639;27;20098;-59
2022/04/30 10:27:43;;;;;;;2.55;1.70;;;17.70;91.40;;;;;;4255014;27;20030;-66
2022/04/30 10:29:52;;;;;;;2.20;1.80;;;17.80;91.50;;;;;;4256681;27;20095;-55
2022/04/30 10:31:53;;;;;;;5.10;1.58;;;17.80;91.00;;;;;;4255131;27;20050;-55
2022/04/30 10:33:54;;;;;;;1.67;1.20;;;17.80;90.80;;;;;;4257104;27;20039;-53
2022/04/30 10:36:06;;;;;;;2.53;1.80;;;17.80;90.50;;;;;;4256003;27;20030;-56
2022/04/30 10:38:19;;;;;;;1.63;1.50;;;17.70;90.40;;;;;;4257784;27;20027;-53
2022/04/30 10:40:22;;;;;;;1.80;1.33;;;17.60;90.50;;;;;;4256391;27;20109;-52
2022/04/30 10:42:31;;;;;;;2.80;1.50;;;17.90;90.60;;;;;;4257070;27;20031;-61
2022/04/30 10:44:32;;;;;;;1.83;1.30;;;18.10;90.40;;;;;;4255985;27;20446;-54
2022/04/30 10:46:38;;;;;;;2.75;1.45;;;18.10;89.50;;;;;;4257352;27;20083;-63
2022/04/30 10:48:39;;;;;;;2.47;1.45;;;18.10;88.50;;;;;;4256254;27;20393;-52
2022/04/30 10:50:41;;;;;;;1.40;1.25;;;18.00;89.10;;;;;;4255624;27;20047;-63
2022/04/30 10:52:46;;;;;;;1.65;1.30;;;17.90;88.70;;;;;;4255219;27;20031;-66
2022/04/30 10:54:50;;;;;;;2.38;1.95;;;17.80;89.30;;;;;;4255718;27;20512;-61
2022/04/30 10:57:00;;;;;;;3.25;1.95;;;17.90;88.70;;;;;;4256799;27;20082;-56
2022/04/30 10:59:01;;;;;;;1.88;1.13;;;17.70;86.80;;;;;;4256342;27;20079;-65
2022/04/30 11:01:16;;;;;;;2.97;1.33;;;17.60;88.40;;;;;;4257354;27;20079;-52
2022/04/30 11:03:17;;;;;;;1.67;1.50;;;17.70;88.30;;;;;;4255075;27;20567;-55
2022/04/30 11:05:19;;;;;;;1.35;1.17;;;17.70;89.10;;;;;;4237606;28;20163;-56
2022/04/30 11:07:21;;;;;;;1.67;1.58;;;17.90;89.60;;;;;;4256296;27;20022;-62
2022/04/30 11:09:23;;;;;;;3.00;1.15;;;18.00;88.80;;;;;;4256544;27;20696;-63
2022/04/30 11:11:24;;;;;;;1.50;1.40;;;17.90;87.90;;;;;;4255042;27;20046;-63
2022/04/30 11:13:26;;;;;;;1.52;1.25;;;17.90;87.80;;;;;;4256505;27;20091;-52
2022/04/30 11:15:27;;;;;;;2.20;1.70;;;17.90;87.50;;;;;;4255750;27;20038;-56